createdAt,value
2023-03-31T00:02:59.667Z,11.10
2023-03-31T00:05:53.687Z,10.50
2023-03-31T00:08:42.353Z,10.00
2023-03-31T00:11:31.036Z,11.70
2023-03-31T00:14:21.474Z,10.20
2023-03-31T00:17:13.289Z,9.10
2023-03-31T00:20:09.184Z,9.90
2023-03-31T00:22:58.011Z,10.40
2023-03-31T00:25:47.481Z,8.90
2023-03-31T00:28:36.269Z,11.20
2023-03-31T00:31:27.366Z,8.50
2023-03-31T00:34:16.378Z,9.80
2023-03-31T00:37:06.021Z,9.70
2023-03-31T00:39:54.717Z,7.40
2023-03-31T00:42:44.401Z,9.40
2023-03-31T00:45:33.177Z,10.50
2023-03-31T00:48:24.333Z,8.00
2023-03-31T00:51:14.599Z,7.90
2023-03-31T00:54:08.562Z,8.30
2023-03-31T00:56:58.810Z,8.70
2023-03-31T00:59:51.794Z,7.80
2023-03-31T01:06:05.409Z,8.40
2023-03-31T01:08:56.549Z,7.50
2023-03-31T01:11:47.948Z,10.50
2023-03-31T01:14:38.261Z,9.50
2023-03-31T01:17:30.455Z,6.40
2023-03-31T01:20:41.824Z,7.40
2023-03-31T01:24:07.711Z,9.40
2023-03-31T01:27:15.631Z,7.40
2023-03-31T01:30:10.726Z,7.80
2023-03-31T01:33:05.463Z,7.80
2023-03-31T01:36:13.081Z,6.70
2023-03-31T01:39:11.482Z,10.90
2023-03-31T01:42:24.612Z,8.00
2023-03-31T01:45:41.770Z,7.50
2023-03-31T01:48:48.584Z,9.10
2023-03-31T01:52:04.196Z,8.90
2023-03-31T01:55:01.881Z,9.30
2023-03-31T01:58:00.300Z,7.70
2023-03-31T02:00:57.412Z,8.90
2023-03-31T02:03:54.408Z,8.00
2023-03-31T02:06:50.105Z,8.20
2023-03-31T02:09:44.256Z,8.30
2023-03-31T02:12:35.942Z,8.20
2023-03-31T02:15:31.373Z,8.30
2023-03-31T02:18:26.540Z,9.70
2023-03-31T02:21:16.556Z,7.50
2023-03-31T02:24:10.637Z,7.40
2023-03-31T02:27:11.661Z,8.60
2023-03-31T02:30:00.567Z,7.00
2023-03-31T02:32:49.329Z,6.30
2023-03-31T02:35:38.051Z,8.10
2023-03-31T02:38:27.293Z,8.50
2023-03-31T02:41:16.372Z,8.20
2023-03-31T02:44:05.208Z,7.80
2023-03-31T02:46:54.548Z,6.00
2023-03-31T02:49:50.936Z,7.20
2023-03-31T02:52:51.206Z,5.60
2023-03-31T02:56:13.157Z,8.20
2023-03-31T02:59:16.814Z,6.40
2023-03-31T03:02:27.456Z,10.30
2023-03-31T03:05:55.121Z,6.90
2023-03-31T03:09:33.412Z,6.50
2023-03-31T03:12:42.523Z,7.90
2023-03-31T03:15:41.146Z,5.20
2023-03-31T03:18:31.221Z,7.70
2023-03-31T03:21:20.111Z,7.70
2023-03-31T03:24:09.104Z,7.60
2023-03-31T03:26:57.937Z,8.30
2023-03-31T03:29:47.688Z,6.60
2023-03-31T03:32:36.346Z,6.10
2023-03-31T03:35:25.641Z,6.30
2023-03-31T03:38:14.322Z,8.00
2023-03-31T03:41:03.064Z,7.70
2023-03-31T03:43:51.769Z,7.10
2023-03-31T03:46:40.599Z,6.20
2023-03-31T03:49:29.479Z,7.40
2023-03-31T03:52:17.940Z,5.30
2023-03-31T03:55:06.875Z,7.30
2023-03-31T03:57:55.787Z,6.60
2023-03-31T04:00:45.436Z,6.60
2023-03-31T04:03:34.199Z,5.60
2023-03-31T04:06:24.040Z,7.40
2023-03-31T04:09:13.098Z,7.60
2023-03-31T04:12:01.759Z,6.80
2023-03-31T04:14:50.577Z,5.30
2023-03-31T04:17:39.423Z,6.50
2023-03-31T04:20:30.816Z,8.40
2023-03-31T04:23:23.475Z,7.40
2023-03-31T04:26:17.576Z,6.40
2023-03-31T04:29:07.581Z,6.30
2023-03-31T04:31:59.688Z,8.90
2023-03-31T04:34:50.721Z,6.10
2023-03-31T04:37:39.253Z,11.30
2023-03-31T04:40:28.471Z,5.80
2023-03-31T04:43:18.467Z,8.10
2023-03-31T04:46:07.687Z,5.60
2023-03-31T04:48:57.073Z,7.90
2023-03-31T04:51:46.324Z,8.20
2023-03-31T04:54:34.915Z,6.60
2023-03-31T04:57:23.922Z,6.60
2023-03-31T05:00:13.314Z,5.60
2023-03-31T05:03:02.321Z,8.70
2023-03-31T05:05:51.187Z,9.80
2023-03-31T05:08:39.977Z,9.10
2023-03-31T05:11:29.245Z,6.50
2023-03-31T05:14:19.522Z,7.40
2023-03-31T05:17:08.335Z,7.10
2023-03-31T05:19:57.016Z,8.10
2023-03-31T05:22:46.138Z,5.60
2023-03-31T05:25:34.803Z,5.90
2023-03-31T05:28:23.363Z,6.30
2023-03-31T05:31:13.232Z,6.80
2023-03-31T05:34:02.302Z,7.30
2023-03-31T05:36:53.551Z,7.70
2023-03-31T05:42:31.016Z,9.50
2023-03-31T05:45:19.670Z,7.40
2023-03-31T05:48:09.146Z,7.40
2023-03-31T05:51:02.040Z,8.90
2023-03-31T05:53:51.290Z,7.60
2023-03-31T05:56:40.158Z,7.10
2023-03-31T05:59:28.965Z,8.90
2023-03-31T06:02:17.760Z,7.60
2023-03-31T06:05:06.868Z,7.80
2023-03-31T06:07:56.369Z,7.70
2023-03-31T06:10:45.292Z,8.50
2023-03-31T06:13:35.021Z,9.60
2023-03-31T06:16:24.300Z,7.80
2023-03-31T06:19:12.915Z,10.50
2023-03-31T06:22:02.148Z,9.10
2023-03-31T06:24:51.124Z,8.80
2023-03-31T06:27:39.840Z,8.60
2023-03-31T06:30:28.698Z,9.70
2023-03-31T06:33:17.416Z,9.70
2023-03-31T06:36:07.959Z,9.60
2023-03-31T06:38:56.725Z,7.90
2023-03-31T06:41:45.599Z,8.50
2023-03-31T06:44:41.382Z,7.80
2023-03-31T06:47:30.057Z,9.50
2023-03-31T06:50:18.928Z,10.90
2023-03-31T06:53:09.122Z,8.70
2023-03-31T06:55:58.074Z,9.70
2023-03-31T06:58:46.695Z,10.20
2023-03-31T07:01:37.522Z,8.90
2023-03-31T07:04:26.579Z,10.50
2023-03-31T07:07:15.573Z,8.50
2023-03-31T07:10:04.913Z,10.10
2023-03-31T07:12:54.076Z,10.20
2023-03-31T07:15:43.568Z,10.70
2023-03-31T07:18:34.901Z,10.90
2023-03-31T07:21:24.399Z,9.10
2023-03-31T07:24:14.445Z,7.80
2023-03-31T07:27:03.358Z,9.40
2023-03-31T07:29:52.318Z,8.10
2023-03-31T07:32:41.479Z,10.70
2023-03-31T07:35:31.222Z,9.90
2023-03-31T07:38:20.395Z,9.70
2023-03-31T07:41:14.871Z,11.10
2023-03-31T07:44:03.865Z,7.90
2023-03-31T07:46:53.101Z,7.20
2023-03-31T07:49:41.699Z,11.30
2023-03-31T07:52:31.041Z,9.60
2023-03-31T07:55:20.514Z,9.80
2023-03-31T07:58:12.388Z,10.80
2023-03-31T08:01:01.301Z,8.50
2023-03-31T08:03:50.233Z,8.20
2023-03-31T08:06:39.729Z,8.60
2023-03-31T08:09:28.666Z,8.80
2023-03-31T08:12:17.420Z,11.00
2023-03-31T08:15:06.682Z,8.50
2023-03-31T08:17:55.544Z,7.90
2023-03-31T08:20:44.622Z,7.50
2023-03-31T08:23:33.449Z,10.10
2023-03-31T08:26:38.556Z,9.60
2023-03-31T08:29:27.583Z,8.40
2023-03-31T08:32:16.723Z,8.60
2023-03-31T08:35:06.529Z,8.60
2023-03-31T08:37:55.825Z,8.90
2023-03-31T08:40:45.003Z,10.70
2023-03-31T08:43:40.822Z,8.60
2023-03-31T08:46:33.836Z,6.90
2023-03-31T08:49:23.991Z,6.60
2023-03-31T08:52:19.535Z,6.70
2023-03-31T08:55:16.371Z,8.00
2023-03-31T08:58:43.426Z,8.90
2023-03-31T09:01:35.894Z,5.10
2023-03-31T09:04:32.952Z,7.60
2023-03-31T09:08:03.409Z,8.40
2023-03-31T09:11:13.486Z,8.30
2023-03-31T09:14:27.547Z,10.90
2023-03-31T09:17:25.760Z,9.10
2023-03-31T09:20:22.286Z,7.60
2023-03-31T09:23:32.953Z,7.90
2023-03-31T09:26:47.775Z,8.40
2023-03-31T09:29:45.851Z,7.40
2023-03-31T09:32:38.314Z,5.80
2023-03-31T09:35:27.482Z,7.60
2023-03-31T09:38:16.720Z,6.10
2023-03-31T09:41:06.198Z,6.40
2023-03-31T09:43:55.133Z,8.40
2023-03-31T09:46:43.962Z,8.30
2023-03-31T09:49:54.421Z,7.10
2023-03-31T09:52:51.727Z,6.60
2023-03-31T09:55:57.084Z,5.20
2023-03-31T09:58:49.068Z,6.20
2023-03-31T10:01:37.952Z,4.40
2023-03-31T10:04:30.652Z,6.00
2023-03-31T10:07:24.432Z,6.60
2023-03-31T10:10:31.260Z,6.70
2023-03-31T10:13:24.351Z,4.10
2023-03-31T10:16:29.664Z,5.00
2023-03-31T10:19:25.021Z,4.60
2023-03-31T10:22:25.339Z,6.20
2023-03-31T10:25:21.449Z,6.30
2023-03-31T10:28:12.663Z,4.40
2023-03-31T10:31:01.802Z,4.10
2023-03-31T10:33:52.285Z,5.10
2023-03-31T10:36:47.684Z,4.80
2023-03-31T10:39:36.845Z,4.70
2023-03-31T10:42:27.900Z,8.50
2023-03-31T10:45:26.492Z,6.10
2023-03-31T10:48:28.172Z,4.90
2023-03-31T10:51:27.764Z,7.20
2023-03-31T10:54:16.649Z,8.30
2023-03-31T10:57:06.338Z,5.20
2023-03-31T11:00:21.056Z,5.20
2023-03-31T11:03:42.068Z,6.20
2023-03-31T11:06:51.156Z,4.50
2023-03-31T11:10:21.645Z,3.80
2023-03-31T11:13:16.207Z,8.00
2023-03-31T11:16:35.263Z,5.40
2023-03-31T11:19:39.077Z,4.80
2023-03-31T11:22:43.270Z,4.20
2023-03-31T11:25:32.005Z,4.30
2023-03-31T11:28:50.565Z,7.70
2023-03-31T11:31:57.890Z,7.20
2023-03-31T11:35:00.905Z,5.10
2023-03-31T11:37:56.788Z,3.40
2023-03-31T11:41:00.744Z,4.90
2023-03-31T11:44:03.567Z,6.90
2023-03-31T11:47:00.318Z,3.40
2023-03-31T11:49:56.096Z,4.40
2023-03-31T11:53:03.041Z,3.30
2023-03-31T11:55:54.241Z,5.20
2023-03-31T11:58:52.413Z,5.00
2023-03-31T12:02:02.327Z,4.60
2023-03-31T12:04:56.761Z,7.40
2023-03-31T12:08:01.418Z,3.90
2023-03-31T12:11:03.494Z,4.60
2023-03-31T12:14:11.072Z,3.20
2023-03-31T12:17:13.067Z,4.40
2023-03-31T12:20:10.846Z,6.40
2023-03-31T12:23:21.728Z,5.20
2023-03-31T12:26:41.364Z,5.40
2023-03-31T12:29:39.872Z,3.50
2023-03-31T12:32:34.839Z,2.80
2023-03-31T12:35:29.188Z,4.30
2023-03-31T12:38:37.302Z,2.90
2023-03-31T12:42:03.400Z,5.50
2023-03-31T12:45:31.447Z,4.60
2023-03-31T12:48:54.917Z,2.70
2023-03-31T12:51:54.611Z,3.80
2023-03-31T12:54:50.069Z,3.70
2023-03-31T12:57:38.944Z,6.60
2023-03-31T13:00:28.164Z,8.70
2023-03-31T13:03:35.457Z,3.40
2023-03-31T13:06:30.161Z,3.80
2023-03-31T13:09:19.144Z,3.10
2023-03-31T13:12:10.353Z,3.30
2023-03-31T13:15:00.392Z,2.80
2023-03-31T13:17:58.974Z,2.90
2023-03-31T13:20:58.795Z,3.90
2023-03-31T13:23:48.437Z,3.60
2023-03-31T13:26:39.008Z,2.70
2023-03-31T13:29:45.068Z,5.00
2023-03-31T13:32:33.850Z,4.20
2023-03-31T13:35:30.178Z,3.90
2023-03-31T13:38:42.710Z,3.20
2023-03-31T13:41:46.411Z,4.50
2023-03-31T13:44:51.437Z,3.50
2023-03-31T13:47:40.234Z,5.50
2023-03-31T13:51:12.192Z,4.80
2023-03-31T13:54:27.724Z,3.30
2023-03-31T13:57:50.285Z,4.10
2023-03-31T14:01:23.001Z,3.00
2023-03-31T14:04:26.742Z,4.10
2023-03-31T14:07:29.260Z,4.00
2023-03-31T14:10:27.624Z,6.50
2023-03-31T14:13:19.067Z,5.10
2023-03-31T14:16:13.265Z,4.90
2023-03-31T14:19:43.339Z,5.30
2023-03-31T14:23:03.005Z,4.20
2023-03-31T14:25:57.547Z,4.60
2023-03-31T14:28:58.337Z,4.30
2023-03-31T14:32:24.259Z,5.70
2023-03-31T14:35:33.941Z,6.30
2023-03-31T14:38:24.086Z,2.70
2023-03-31T14:41:20.367Z,3.80
2023-03-31T14:44:16.166Z,4.70
2023-03-31T14:47:12.115Z,2.90
2023-03-31T14:50:07.687Z,6.50
2023-03-31T14:52:57.008Z,5.20
2023-03-31T14:55:58.208Z,3.40
2023-03-31T14:58:51.657Z,4.00
2023-03-31T15:01:40.916Z,4.70
2023-03-31T15:04:42.109Z,5.60
2023-03-31T15:07:31.753Z,5.70
2023-03-31T15:10:21.758Z,4.00
2023-03-31T15:13:16.023Z,3.80
2023-03-31T15:16:21.540Z,7.20
2023-03-31T15:19:39.227Z,6.00
2023-03-31T15:22:29.839Z,5.40
2023-03-31T15:25:18.939Z,6.90
2023-03-31T15:28:14.069Z,5.70
2023-03-31T15:31:09.604Z,6.70
2023-03-31T15:33:59.568Z,5.00
2023-03-31T15:36:48.362Z,3.30
2023-03-31T15:39:38.697Z,4.90
2023-03-31T15:42:28.762Z,5.50
2023-03-31T15:45:38.878Z,4.30
2023-03-31T15:48:34.729Z,4.80
2023-03-31T15:51:41.382Z,4.40
2023-03-31T15:54:37.861Z,5.60
2023-03-31T15:57:35.512Z,6.00
2023-03-31T16:00:47.342Z,4.50
2023-03-31T16:03:38.666Z,3.60
2023-03-31T16:06:39.542Z,7.00
2023-03-31T16:09:38.165Z,4.30
2023-03-31T16:21:55.268Z,5.20
2023-03-31T16:24:44.418Z,7.70
2023-03-31T16:27:39.852Z,4.70
2023-03-31T16:30:46.888Z,6.60
2023-03-31T16:33:56.644Z,5.20
2023-03-31T16:36:45.475Z,4.70
2023-03-31T16:39:34.384Z,6.70
2023-03-31T16:42:24.253Z,7.50
2023-03-31T16:45:14.944Z,5.20
2023-03-31T16:51:06.017Z,9.70
2023-03-31T16:53:56.156Z,6.40
2023-03-31T16:56:48.230Z,8.10
2023-03-31T16:59:37.904Z,9.50
2023-03-31T17:02:26.816Z,6.80
2023-03-31T17:05:15.940Z,5.00
2023-03-31T17:08:04.717Z,9.90
2023-03-31T17:10:56.213Z,7.40
2023-03-31T17:13:45.473Z,6.10
2023-03-31T17:16:47.254Z,8.80
2023-03-31T17:19:37.935Z,7.10
2023-03-31T17:22:27.060Z,9.60
2023-03-31T17:25:16.702Z,6.80
2023-03-31T17:28:05.895Z,7.90
2023-03-31T17:30:55.151Z,9.50
2023-03-31T17:33:44.173Z,7.50
2023-03-31T17:36:33.109Z,7.00
2023-03-31T17:39:21.994Z,9.70
2023-03-31T17:42:12.026Z,6.00
2023-03-31T17:45:00.656Z,6.90
2023-03-31T17:47:49.514Z,7.90
2023-03-31T17:50:38.563Z,9.10
2023-03-31T17:53:27.633Z,7.00
2023-03-31T17:56:17.638Z,8.90
2023-03-31T17:59:06.897Z,7.00
2023-03-31T18:01:56.053Z,8.80
2023-03-31T18:04:45.184Z,6.20
2023-03-31T18:07:35.984Z,8.50
2023-03-31T18:10:24.626Z,7.40
2023-03-31T18:13:13.456Z,9.20
2023-03-31T18:16:03.845Z,7.30
2023-03-31T18:18:52.601Z,6.00
2023-03-31T18:21:41.546Z,7.40
2023-03-31T18:24:31.919Z,7.90
2023-03-31T18:27:22.559Z,8.50
2023-03-31T18:30:13.576Z,6.20
2023-03-31T18:33:03.147Z,8.10
2023-03-31T18:35:53.955Z,6.60
2023-03-31T18:38:42.896Z,7.70
2023-03-31T18:41:31.592Z,8.80
2023-03-31T18:44:21.969Z,8.00
2023-03-31T18:47:10.842Z,8.90
2023-03-31T18:49:59.793Z,9.20
2023-03-31T18:52:49.508Z,8.70
2023-03-31T18:55:38.127Z,13.00
2023-03-31T18:58:29.307Z,9.00
2023-03-31T19:04:10.589Z,11.00
2023-03-31T19:06:59.530Z,10.90
2023-03-31T19:09:49.182Z,9.10
2023-03-31T19:12:37.953Z,9.30
2023-03-31T19:15:27.916Z,9.40
2023-03-31T19:18:17.375Z,11.20
2023-03-31T19:21:06.377Z,8.70
2023-03-31T19:23:55.253Z,9.50
2023-03-31T19:26:43.951Z,11.00
2023-03-31T19:29:35.251Z,8.30
2023-03-31T19:42:29.734Z,10.10
2023-03-31T19:45:18.676Z,13.20
2023-03-31T19:48:07.660Z,11.40
2023-03-31T19:51:02.465Z,9.10
2023-03-31T19:53:52.148Z,11.40
2023-03-31T19:56:41.821Z,10.60
2023-03-31T19:59:31.134Z,12.10
2023-03-31T20:02:20.314Z,11.30
2023-03-31T20:05:09.884Z,9.70
2023-03-31T20:07:58.934Z,12.30
2023-03-31T20:10:49.333Z,10.90
2023-03-31T20:13:39.078Z,10.20
2023-03-31T20:16:30.766Z,12.10
2023-03-31T20:19:19.919Z,10.30
2023-03-31T20:22:26.827Z,13.70
2023-03-31T20:25:16.230Z,10.50
2023-03-31T20:28:05.603Z,10.50
2023-03-31T20:30:56.374Z,14.40
2023-03-31T20:33:46.414Z,12.20
2023-03-31T20:36:35.549Z,12.20
2023-03-31T20:39:24.706Z,12.60
2023-03-31T20:42:13.567Z,12.50
2023-03-31T20:45:03.336Z,12.90
2023-03-31T20:47:52.436Z,13.60
2023-03-31T20:50:42.087Z,15.40
2023-03-31T20:53:31.135Z,14.00
2023-03-31T20:56:26.904Z,13.10
2023-03-31T20:59:16.065Z,10.30
2023-03-31T21:02:05.124Z,14.80
2023-03-31T21:04:54.012Z,13.60
2023-03-31T21:07:43.017Z,12.90
2023-03-31T21:10:31.998Z,16.20
2023-03-31T21:13:21.144Z,13.30
2023-03-31T21:16:10.829Z,12.00
2023-03-31T21:19:00.156Z,15.00
2023-03-31T21:21:49.032Z,14.90
2023-03-31T21:24:38.064Z,14.90
2023-03-31T21:27:26.923Z,18.90
2023-03-31T21:30:16.216Z,13.40
2023-03-31T21:33:05.449Z,16.20
2023-03-31T21:35:54.977Z,15.40
2023-03-31T21:38:45.696Z,15.50
2023-03-31T21:41:34.492Z,16.70
2023-03-31T21:44:23.406Z,12.60
2023-03-31T21:47:12.364Z,17.50
2023-03-31T21:50:01.616Z,12.20
2023-03-31T21:52:50.361Z,15.10
2023-03-31T21:55:39.532Z,15.00
2023-03-31T21:58:29.290Z,11.40
2023-03-31T22:01:18.819Z,14.50
2023-03-31T22:04:08.639Z,12.70
2023-03-31T22:06:58.053Z,12.40
2023-03-31T22:09:46.855Z,11.80
2023-03-31T22:12:35.520Z,11.80
2023-03-31T22:15:24.464Z,11.00
2023-03-31T22:18:13.279Z,9.50
2023-03-31T22:21:02.805Z,10.00
2023-03-31T22:23:57.084Z,10.60
2023-03-31T22:26:46.091Z,10.30
2023-03-31T22:29:34.955Z,10.00
2023-03-31T22:32:23.858Z,13.10
2023-03-31T22:35:12.784Z,11.10
2023-03-31T22:38:01.746Z,12.30
2023-03-31T22:40:50.517Z,11.40
2023-03-31T22:43:39.909Z,10.70
2023-03-31T22:46:28.786Z,10.20
2023-03-31T22:49:17.862Z,11.10
2023-03-31T22:52:06.679Z,13.00
2023-03-31T22:54:55.819Z,10.50
2023-03-31T22:57:45.061Z,8.50
2023-03-31T23:00:33.668Z,10.20
2023-03-31T23:03:22.795Z,9.40
2023-03-31T23:06:12.588Z,9.20
2023-03-31T23:09:01.487Z,11.30
2023-03-31T23:11:50.757Z,8.00
2023-03-31T23:14:39.470Z,10.30
2023-03-31T23:17:28.551Z,8.40
2023-03-31T23:20:17.440Z,8.20
2023-03-31T23:23:06.040Z,9.80
2023-03-31T23:25:55.050Z,9.90
2023-03-31T23:28:45.566Z,7.40
2023-03-31T23:31:34.845Z,8.40
2023-03-31T23:34:24.090Z,9.40
2023-03-31T23:37:14.136Z,7.20
2023-03-31T23:40:02.752Z,9.60
2023-03-31T23:42:51.626Z,9.10
2023-03-31T23:45:40.789Z,8.40
2023-03-31T23:48:29.647Z,9.90
2023-03-31T23:51:19.013Z,8.40
2023-03-31T23:54:07.835Z,7.90
2023-03-31T23:56:56.726Z,9.50
2023-03-31T23:59:45.770Z,8.40
